Time;durP1;ratioP1;P1;durP2;ratioP2;P2;SDS_P1;SDS_P2;PMS_P1;PMS_P2;Temp;Humidity;BMP_temperature;BMP_pressure;BME280_temperature;BME280_humidity;BME280_pressure;Samples;Min_cycle;Max_cycle;Signal;HPM_P1;HPM_P2
2023/10/03 00:04:30;;;;;;;36.22;18.80;;;16.90;99.90;;;;;;4918660;29;20056;-91
2023/10/03 00:06:55;;;;;;;38.15;18.77;;;16.90;99.90;;;;;;4918745;29;20047;-91
2023/10/03 00:09:35;;;;;;;33.90;18.42;;;17.20;99.90;;;;;;4917870;29;20052;-91
2023/10/03 00:12:02;;;;;;;33.85;18.35;;;16.80;99.90;;;;;;4917883;29;20058;-90
2023/10/03 00:14:31;;;;;;;34.33;18.20;;;16.80;99.90;;;;;;4950108;29;20047;-91
2023/10/03 00:16:56;;;;;;;36.03;17.92;;;16.80;99.90;;;;;;4950235;29;20484;-91
2023/10/03 00:19:22;;;;;;;33.13;17.15;;;16.80;99.90;;;;;;4918678;29;20139;-91
2023/10/03 00:22:00;;;;;;;35.03;17.65;;;17.50;99.90;;;;;;4918375;29;20135;-90
2023/10/03 00:24:35;;;;;;;34.90;17.20;;;17.40;99.90;;;;;;4962647;28;20063;-90
2023/10/03 00:27:01;;;;;;;34.08;17.88;;;16.70;99.90;;;;;;4919210;29;20400;-91
2023/10/03 00:29:29;;;;;;;31.55;16.50;;;16.70;99.90;;;;;;4917349;29;20040;-91
2023/10/03 00:32:01;;;;;;;31.70;17.35;;;16.70;99.90;;;;;;4918116;29;20048;-91
2023/10/03 00:34:27;;;;;;;32.00;17.00;;;16.70;99.90;;;;;;4918284;29;20449;-91
2023/10/03 00:36:54;;;;;;;34.50;17.20;;;17.50;99.90;;;;;;4917924;29;20188;-90
2023/10/03 00:39:20;;;;;;;32.97;17.30;;;16.70;99.90;;;;;;4936816;29;20043;-90
2023/10/03 00:41:46;;;;;;;30.48;16.90;;;16.70;99.90;;;;;;4927492;29;20518;-90
2023/10/03 00:44:19;;;;;;;32.25;17.10;;;16.70;99.90;;;;;;4918573;29;20196;-91
2023/10/03 00:46:51;;;;;;;33.45;17.10;;;16.70;99.90;;;;;;4918639;29;20079;-91
2023/10/03 00:49:16;;;;;;;31.77;17.40;;;16.60;99.90;;;;;;4919832;29;20139;-91
2023/10/03 00:51:45;;;;;;;34.05;17.20;;;16.60;99.90;;;;;;4917609;29;20179;-91
2023/10/03 00:54:11;;;;;;;37.00;17.88;;;16.60;99.90;;;;;;4921134;29;20052;-90
2023/10/03 00:56:37;;;;;;;32.40;16.63;;;16.60;99.90;;;;;;4920235;29;20056;-91
2023/10/03 00:59:03;;;;;;;33.33;16.38;;;16.70;99.90;;;;;;4919908;29;20052;-91
2023/10/03 01:01:33;;;;;;;32.60;16.27;;;16.60;99.90;;;;;;4918040;29;20055;-91
2023/10/03 01:04:01;;;;;;;32.35;16.80;;;16.90;99.90;;;;;;4949036;29;20059;-90
2023/10/03 01:06:29;;;;;;;33.40;17.42;;;16.60;99.90;;;;;;4917845;29;20068;-91
2023/10/03 01:08:55;;;;;;;35.08;17.60;;;17.10;99.90;;;;;;4921301;29;20476;-90
2023/10/03 01:11:23;;;;;;;31.00;16.90;;;16.60;99.90;;;;;;4934495;29;20043;-90
2023/10/03 01:13:54;;;;;;;35.40;17.35;;;16.50;99.90;;;;;;4936961;29;20047;-90
2023/10/03 01:16:41;;;;;;;32.65;17.13;;;16.50;99.90;;;;;;4937725;29;20079;-90
2023/10/03 01:19:14;;;;;;;31.52;16.13;;;16.50;99.90;;;;;;4935921;29;20062;-91
2023/10/03 01:21:45;;;;;;;30.85;16.35;;;16.50;99.90;;;;;;4936647;29;20091;-91
2023/10/03 01:24:20;;;;;;;30.50;16.15;;;16.60;99.90;;;;;;4924666;29;20064;-90
2023/10/03 01:26:47;;;;;;;32.60;16.17;;;16.50;99.90;;;;;;4948824;29;20048;-91
2023/10/03 01:29:13;;;;;;;31.50;16.00;;;16.60;99.90;;;;;;4917879;29;20052;-90
2023/10/03 01:31:41;;;;;;;28.75;15.35;;;16.60;99.90;;;;;;4940439;23;20094;-91
2023/10/03 01:34:07;;;;;;;32.90;16.17;;;16.60;99.90;;;;;;4958316;28;20422;-91
2023/10/03 01:36:32;;;;;;;28.35;14.25;;;16.70;99.90;;;;;;4958809;28;20031;-91
2023/10/03 01:38:58;;;;;;;30.85;15.63;;;16.60;99.90;;;;;;4958663;28;20537;-90
2023/10/03 01:41:24;;;;;;;30.30;16.42;;;16.60;99.90;;;;;;4957931;28;20054;-91
2023/10/03 01:43:52;;;;;;;28.52;15.40;;;16.70;99.90;;;;;;4958776;28;20038;-90
2023/10/03 01:46:18;;;;;;;30.70;15.30;;;16.60;99.90;;;;;;4955885;28;20397;-91
2023/10/03 01:48:44;;;;;;;30.95;15.85;;;16.60;99.90;;;;;;4958093;28;20042;-91
2023/10/03 01:51:10;;;;;;;31.90;15.02;;;16.70;99.90;;;;;;4958334;28;20149;-91
2023/10/03 01:53:42;;;;;;;32.67;16.38;;;16.60;99.90;;;;;;4957985;28;20082;-90
2023/10/03 01:56:19;;;;;;;32.28;16.73;;;16.60;99.90;;;;;;4964745;28;20026;-91
2023/10/03 01:58:45;;;;;;;30.27;15.95;;;16.50;99.90;;;;;;4983386;28;20054;-91
2023/10/03 02:02:06;;;;;;;31.75;16.77;;;17.20;99.90;;;;;;4962926;29;20050;-91
2023/10/03 02:04:32;;;;;;;31.95;14.55;;;16.60;99.90;;;;;;4943817;29;20051;-91
2023/10/03 02:06:57;;;;;;;30.05;15.25;;;16.60;99.90;;;;;;4939486;29;20069;-90
2023/10/03 02:09:23;;;;;;;34.88;16.08;;;17.10;99.90;;;;;;4938687;29;20489;-90
2023/10/03 02:11:49;;;;;;;31.63;15.38;;;16.50;99.90;;;;;;4939269;29;20399;-90
2023/10/03 02:14:14;;;;;;;29.55;14.85;;;16.40;99.90;;;;;;4936726;29;20051;-90
2023/10/03 02:16:46;;;;;;;31.20;15.82;;;16.40;99.90;;;;;;4939479;29;20055;-91
2023/10/03 02:19:12;;;;;;;31.55;14.77;;;16.40;99.90;;;;;;4948243;28;20053;-91
2023/10/03 02:21:41;;;;;;;30.60;15.40;;;16.50;99.90;;;;;;4956843;28;20076;-92
2023/10/03 02:24:07;;;;;;;32.53;15.65;;;16.50;99.90;;;;;;4991150;28;20053;-91
2023/10/03 02:26:33;;;;;;;32.95;15.25;;;16.50;99.90;;;;;;4960114;28;20048;-90
2023/10/03 02:29:00;;;;;;;29.80;15.00;;;16.50;99.90;;;;;;4958240;28;20050;-91
2023/10/03 02:31:26;;;;;;;28.95;14.23;;;16.50;99.90;;;;;;4948171;28;20131;-91
2023/10/03 02:33:53;;;;;;;30.20;15.73;;;16.50;99.90;;;;;;4967328;28;20507;-91
2023/10/03 02:36:19;;;;;;;30.40;14.55;;;16.70;99.90;;;;;;4936446;29;20055;-92
2023/10/03 02:38:45;;;;;;;31.15;14.77;;;16.50;99.90;;;;;;4937267;29;20039;-91
2023/10/03 02:41:19;;;;;;;30.85;14.82;;;16.50;99.90;;;;;;4934871;29;20047;-91
2023/10/03 02:43:48;;;;;;;32.42;15.70;;;16.50;99.90;;;;;;4937856;29;20099;-91
2023/10/03 02:46:19;;;;;;;28.75;14.73;;;16.50;99.90;;;;;;4938269;29;20044;-91
2023/10/03 02:48:55;;;;;;;33.28;15.27;;;16.80;99.90;;;;;;4934649;29;20130;-91
2023/10/03 02:51:28;;;;;;;30.52;14.82;;;16.50;99.90;;;;;;4933928;29;20052;-90
2023/10/03 02:54:06;;;;;;;28.20;13.57;;;16.40;99.90;;;;;;4934834;29;20404;-90
2023/10/03 02:56:37;;;;;;;29.25;14.77;;;16.50;99.90;;;;;;4933070;29;20048;-91
2023/10/03 02:59:10;;;;;;;32.35;15.95;;;16.50;99.90;;;;;;4935023;29;20447;-91
2023/10/03 03:01:41;;;;;;;29.48;14.70;;;16.50;99.90;;;;;;4935115;29;20102;-91
2023/10/03 03:04:21;;;;;;;30.00;14.43;;;16.50;99.90;;;;;;4966182;28;20075;-91
2023/10/03 03:07:05;;;;;;;30.35;14.90;;;16.80;99.90;;;;;;4934856;29;20094;-91
2023/10/03 03:09:37;;;;;;;;;;;16.50;99.90;;;;;;4935235;29;20052;-91
2023/10/03 03:12:16;;;;;;;30.23;14.13;;;16.50;99.90;;;;;;4933984;29;19969;-91
2023/10/03 03:14:52;;;;;;;30.02;14.82;;;16.50;99.90;;;;;;4934761;29;20411;-91
2023/10/03 03:17:28;;;;;;;29.65;14.07;;;16.50;99.90;;;;;;4935040;29;20044;-90
2023/10/03 03:20:19;;;;;;;30.60;14.77;;;17.40;99.90;;;;;;4934555;29;20052;-91
2023/10/03 03:22:47;;;;;;;30.23;14.57;;;16.60;99.90;;;;;;4934607;29;20048;-91
2023/10/03 03:25:24;;;;;;;29.58;14.60;;;16.60;99.90;;;;;;4965584;28;20055;-91
2023/10/03 03:27:57;;;;;;;27.95;14.32;;;16.60;99.90;;;;;;4934891;29;20059;-93
2023/10/03 03:32:57;;;;;;;29.05;13.13;;;16.50;99.90;;;;;;4933380;28;20052;-91
2023/10/03 03:35:26;;;;;;;26.90;13.48;;;16.70;99.90;;;;;;4933582;29;20048;-91
2023/10/03 03:37:56;;;;;;;27.52;13.88;;;16.50;99.90;;;;;;4966781;28;20047;-90
2023/10/03 03:40:31;;;;;;;30.23;13.65;;;16.70;99.90;;;;;;4933258;29;20039;-91
2023/10/03 03:43:00;;;;;;;29.27;13.25;;;17.10;99.90;;;;;;4933957;29;20051;-91
2023/10/03 03:45:26;;;;;;;32.00;14.18;;;16.60;99.90;;;;;;4934171;29;20052;-91
2023/10/03 03:47:55;;;;;;;29.95;13.38;;;16.60;99.90;;;;;;4965466;28;20035;-91
2023/10/03 03:50:24;;;;;;;28.95;13.30;;;17.10;99.90;;;;;;4934420;29;20055;-91
2023/10/03 03:52:54;;;;;;;30.05;13.38;;;16.70;99.90;;;;;;4933414;29;20044;-91
2023/10/03 03:55:20;;;;;;;28.75;13.23;;;16.80;99.90;;;;;;4934967;29;20050;-91
2023/10/03 03:57:46;;;;;;;26.58;12.70;;;16.80;99.90;;;;;;4937613;29;20178;-90
2023/10/03 04:00:23;;;;;;;27.73;12.63;;;17.30;99.90;;;;;;4932816;29;20127;-90
2023/10/03 04:02:49;;;;;;;26.27;12.00;;;17.00;99.90;;;;;;4927043;29;20056;-91
2023/10/03 04:05:49;;;;;;;28.73;13.18;;;17.30;99.90;;;;;;4936044;29;20056;-91
2023/10/03 04:08:15;;;;;;;27.70;13.15;;;17.40;99.90;;;;;;4937476;23;20102;-91
2023/10/03 04:10:43;;;;;;;26.15;12.48;;;17.60;99.90;;;;;;4930040;29;20138;-91
2023/10/03 04:13:14;;;;;;;29.33;12.43;;;17.70;99.90;;;;;;4932753;29;20091;-91
2023/10/03 04:15:45;;;;;;;28.67;12.48;;;17.70;99.90;;;;;;4898797;29;20048;-90
2023/10/03 04:18:11;;;;;;;29.20;12.68;;;18.20;99.90;;;;;;4899240;29;20107;-91
2023/10/03 04:20:40;;;;;;;25.77;12.10;;;17.90;99.90;;;;;;4903027;29;20103;-90
2023/10/03 04:23:09;;;;;;;25.55;11.95;;;17.90;99.90;;;;;;4898608;29;20056;-90
2023/10/03 04:25:37;;;;;;;24.50;11.00;;;18.00;99.90;;;;;;4896279;29;20074;-90
2023/10/03 04:28:04;;;;;;;27.05;10.98;;;18.00;99.90;;;;;;4899172;29;20524;-90
2023/10/03 04:30:30;;;;;;;25.40;12.48;;;18.10;99.90;;;;;;4883540;29;20104;-90
2023/10/03 04:33:20;;;;;;;26.75;12.30;;;18.40;99.90;;;;;;4881018;29;20052;-90
2023/10/03 04:36:03;;;;;;;29.55;11.23;;;18.10;99.90;;;;;;4910856;29;20059;-90
2023/10/03 04:38:40;;;;;;;27.00;12.13;;;18.10;99.90;;;;;;4881248;29;20080;-91
2023/10/03 04:41:09;;;;;;;24.75;11.85;;;18.10;99.90;;;;;;4911913;29;20052;-91
2023/10/03 04:43:51;;;;;;;28.35;11.52;;;18.10;99.90;;;;;;4878252;29;20475;-90
2023/10/03 04:46:26;;;;;;;27.50;12.80;;;18.10;99.90;;;;;;4882596;29;20052;-91
2023/10/03 04:48:52;;;;;;;27.02;11.43;;;18.20;99.90;;;;;;4884064;29;20515;-90
2023/10/03 04:51:17;;;;;;;27.77;12.10;;;18.20;99.90;;;;;;4883919;29;20052;-90
2023/10/03 04:53:43;;;;;;;27.42;11.88;;;18.20;99.90;;;;;;4885432;29;20135;-88
2023/10/03 04:56:08;;;;;;;26.35;11.32;;;18.20;99.90;;;;;;4889308;29;20045;-90
2023/10/03 04:58:34;;;;;;;25.90;10.93;;;18.30;99.90;;;;;;4917087;29;20067;-91
2023/10/03 05:01:05;;;;;;;24.45;10.45;;;18.30;99.90;;;;;;4919293;29;20043;-91
2023/10/03 05:03:31;;;;;;;26.63;11.02;;;18.80;99.90;;;;;;4916380;29;20044;-90
2023/10/03 05:05:56;;;;;;;29.30;11.82;;;18.30;99.90;;;;;;4903050;29;20514;-90
2023/10/03 05:08:22;;;;;;;25.67;10.75;;;18.90;99.90;;;;;;4902077;29;20563;-91
2023/10/03 05:10:57;;;;;;;27.15;11.18;;;18.20;99.90;;;;;;4901889;29;20413;-91
2023/10/03 05:13:22;;;;;;;26.50;11.38;;;18.30;99.90;;;;;;4902528;29;20051;-91
2023/10/03 05:15:48;;;;;;;26.33;10.90;;;18.50;99.90;;;;;;4902786;29;20052;-90
2023/10/03 05:18:14;;;;;;;25.45;11.27;;;18.30;99.90;;;;;;4901987;29;20040;-91
2023/10/03 05:20:42;;;;;;;24.73;11.48;;;18.40;99.90;;;;;;4934030;29;20090;-91
2023/10/03 05:23:08;;;;;;;24.05;10.38;;;18.40;99.90;;;;;;4902181;29;20044;-91
2023/10/03 05:25:37;;;;;;;27.00;11.20;;;18.40;99.90;;;;;;4901500;29;20075;-91
2023/10/03 05:28:12;;;;;;;23.85;11.07;;;18.40;99.90;;;;;;4905677;29;20052;-91
2023/10/03 05:30:38;;;;;;;26.70;10.88;;;18.50;99.90;;;;;;4933968;29;20087;-91
2023/10/03 05:33:24;;;;;;;25.38;10.77;;;18.50;99.90;;;;;;4903248;29;20511;-90
2023/10/03 05:35:50;;;;;;;26.92;10.38;;;18.60;99.90;;;;;;4901687;29;20056;-91
2023/10/03 05:38:16;;;;;;;25.38;10.65;;;18.50;99.90;;;;;;4900290;29;20079;-91
2023/10/03 05:40:43;;;;;;;27.00;10.80;;;18.90;99.90;;;;;;4904258;29;20079;-89
2023/10/03 05:43:19;;;;;;;26.02;10.20;;;18.60;99.90;;;;;;4902262;29;20095;-90
2023/10/03 05:45:49;;;;;;;23.05;9.85;;;18.70;99.90;;;;;;4900922;29;20051;-90
2023/10/03 05:48:21;;;;;;;23.70;10.07;;;18.70;99.90;;;;;;4901405;29;20059;-90
2023/10/03 05:50:47;;;;;;;24.30;10.10;;;18.80;99.90;;;;;;4917891;29;20062;-85
2023/10/03 05:53:13;;;;;;;21.92;9.18;;;18.90;99.90;;;;;;4931446;29;20036;-86
2023/10/03 05:55:39;;;;;;;24.80;9.73;;;18.80;99.90;;;;;;4890559;29;20049;-84
2023/10/03 05:58:07;;;;;;;21.02;9.07;;;18.80;99.90;;;;;;4901778;29;20055;-85
2023/10/03 06:00:39;;;;;;;22.02;9.82;;;18.90;99.90;;;;;;4881980;29;20048;-86
2023/10/03 06:03:09;;;;;;;23.38;9.57;;;18.80;99.90;;;;;;4882787;29;20055;-85
2023/10/03 06:05:34;;;;;;;22.75;9.18;;;18.90;99.90;;;;;;4882344;29;20055;-86
2023/10/03 06:08:00;;;;;;;20.52;8.68;;;18.90;99.90;;;;;;4913707;29;20036;-86
2023/10/03 06:10:29;;;;;;;20.52;8.95;;;18.90;99.90;;;;;;4881976;29;20501;-86
2023/10/03 06:12:55;;;;;;;18.25;8.95;;;18.90;99.90;;;;;;4882379;29;20051;-86
2023/10/03 06:15:20;;;;;;;24.60;9.45;;;18.90;99.90;;;;;;4882006;29;20048;-86
2023/10/03 06:17:46;;;;;;;22.02;8.82;;;18.90;99.90;;;;;;4899583;29;20147;-87
2023/10/03 06:20:15;;;;;;;22.10;8.68;;;18.90;99.90;;;;;;4882446;29;20044;-85
2023/10/03 06:22:41;;;;;;;20.77;7.97;;;18.90;99.90;;;;;;4880860;29;20045;-86
2023/10/03 06:25:07;;;;;;;21.15;8.00;;;18.90;99.90;;;;;;4881905;29;20059;-85
2023/10/03 06:27:33;;;;;;;19.80;7.63;;;18.90;99.90;;;;;;4912606;29;20051;-85
2023/10/03 06:29:59;;;;;;;17.67;7.65;;;18.90;99.90;;;;;;4881731;29;20135;-86
2023/10/03 06:32:25;;;;;;;19.25;7.57;;;18.90;99.90;;;;;;4912755;29;20089;-85
2023/10/03 06:34:53;;;;;;;19.58;7.35;;;18.90;99.90;;;;;;4898068;29;20049;-86
2023/10/03 06:37:19;;;;;;;15.70;6.13;;;19.00;99.90;;;;;;4912729;29;20056;-85
2023/10/03 06:39:45;;;;;;;14.27;6.00;;;18.90;99.90;;;;;;4881686;29;20048;-85
2023/10/03 06:42:11;;;;;;;16.17;5.95;;;18.90;99.90;;;;;;4881166;29;20051;-85
2023/10/03 06:44:36;;;;;;;15.20;6.03;;;18.80;99.90;;;;;;4881693;29;20048;-86
2023/10/03 06:47:07;;;;;;;16.58;6.03;;;18.80;99.90;;;;;;4913100;29;20045;-85
2023/10/03 06:49:33;;;;;;;14.88;5.68;;;18.80;99.90;;;;;;4881124;29;20051;-85
2023/10/03 06:52:01;;;;;;;15.88;5.97;;;18.80;99.90;;;;;;4881589;29;20049;-86
2023/10/03 06:54:27;;;;;;;17.23;5.57;;;18.80;99.90;;;;;;4881332;29;20056;-86
2023/10/03 06:57:19;;;;;;;14.20;5.18;;;18.90;99.90;;;;;;4881019;29;20044;-85
2023/10/03 06:59:54;;;;;;;14.75;5.22;;;18.70;99.90;;;;;;4880286;29;20052;-85
2023/10/03 07:02:20;;;;;;;13.88;4.72;;;18.80;99.90;;;;;;4881623;29;20060;-85
2023/10/03 07:04:47;;;;;;;13.40;4.68;;;18.70;99.90;;;;;;4880684;29;20059;-87
2023/10/03 07:07:12;;;;;;;14.35;4.72;;;18.70;99.90;;;;;;4880927;29;20080;-85
2023/10/03 07:09:39;;;;;;;16.35;4.90;;;18.70;99.90;;;;;;4881256;29;20143;-85
2023/10/03 07:12:08;;;;;;;15.63;5.63;;;18.60;99.90;;;;;;4896821;29;20057;-85
2023/10/03 07:14:35;;;;;;;14.75;5.05;;;18.60;99.90;;;;;;4881744;29;20060;-85
2023/10/03 07:17:02;;;;;;;15.20;4.93;;;18.70;99.90;;;;;;4890435;29;20100;-85
2023/10/03 07:19:30;;;;;;;14.77;4.93;;;18.70;99.90;;;;;;4899767;29;20056;-88
2023/10/03 07:21:58;;;;;;;12.60;4.70;;;18.70;99.90;;;;;;4900058;29;20096;-86
2023/10/03 07:24:28;;;;;;;12.77;4.82;;;18.70;99.90;;;;;;4930370;29;20437;-88
2023/10/03 07:26:54;;;;;;;13.80;5.07;;;18.70;99.90;;;;;;4902785;29;20134;-86
2023/10/03 07:29:21;;;;;;;12.60;4.40;;;18.80;99.90;;;;;;4900200;29;20139;-88
2023/10/03 07:31:47;;;;;;;14.45;4.40;;;18.90;99.90;;;;;;4892280;29;20115;-86
2023/10/03 07:34:17;;;;;;;12.82;5.00;;;18.80;99.90;;;;;;4897466;29;20485;-84
2023/10/03 07:36:43;;;;;;;16.83;4.90;;;18.80;99.90;;;;;;4895037;29;20063;-84
2023/10/03 07:39:09;;;;;;;12.93;4.05;;;19.10;99.90;;;;;;4895622;29;20082;-85
2023/10/03 07:41:34;;;;;;;13.05;4.43;;;18.80;99.90;;;;;;4928474;29;20481;-84
2023/10/03 07:44:04;;;;;;;14.38;4.72;;;18.80;99.90;;;;;;4897628;29;20411;-84
2023/10/03 07:46:30;;;;;;;13.52;4.50;;;18.80;99.90;;;;;;4896349;29;20040;-84
2023/10/03 07:49:01;;;;;;;14.85;4.68;;;18.80;99.90;;;;;;4899673;29;20082;-85
2023/10/03 07:51:40;;;;;;;14.75;5.00;;;18.80;99.90;;;;;;4890729;29;20405;-84
2023/10/03 07:54:06;;;;;;;14.60;5.40;;;18.80;99.90;;;;;;4897016;29;20075;-85
2023/10/03 07:56:33;;;;;;;14.95;5.63;;;18.70;99.90;;;;;;4908437;29;20144;-83
2023/10/03 07:59:02;;;;;;;13.02;5.05;;;18.60;99.90;;;;;;4932911;29;20508;-84
2023/10/03 08:01:29;;;;;;;13.98;5.70;;;18.50;99.90;;;;;;4899177;29;20091;-84
2023/10/03 08:03:56;;;;;;;15.95;5.85;;;18.50;99.90;;;;;;4899032;29;20091;-83
2023/10/03 08:06:27;;;;;;;14.98;5.90;;;18.50;99.90;;;;;;4913896;29;20055;-82
2023/10/03 08:08:59;;;;;;;15.75;5.40;;;18.60;99.90;;;;;;4899104;29;20052;-82
2023/10/03 08:11:32;;;;;;;19.40;5.70;;;18.40;99.90;;;;;;4899063;29;20081;-83
2023/10/03 08:14:00;;;;;;;12.40;4.80;;;18.40;99.90;;;;;;4898354;29;20051;-83
2023/10/03 08:16:34;;;;;;;15.57;5.22;;;18.40;99.90;;;;;;4898808;29;20404;-83
2023/10/03 08:19:01;;;;;;;13.35;5.10;;;18.60;99.90;;;;;;4899365;29;20056;-82
2023/10/03 08:21:30;;;;;;;12.73;4.80;;;18.60;99.90;;;;;;4909332;23;20143;-83
2023/10/03 08:24:09;;;;;;;13.77;5.03;;;18.30;99.90;;;;;;4921183;29;20052;-83
2023/10/03 08:26:37;;;;;;;13.77;4.63;;;18.40;99.90;;;;;;4845607;29;20057;-82
2023/10/03 08:29:05;;;;;;;12.45;4.18;;;18.40;99.90;;;;;;4846059;29;20053;-82
2023/10/03 08:31:32;;;;;;;12.75;4.70;;;18.50;99.90;;;;;;4846975;29;20075;-82
2023/10/03 08:33:58;;;;;;;11.77;4.35;;;18.40;99.90;;;;;;4846549;29;20122;-82
2023/10/03 08:36:28;;;;;;;12.82;5.10;;;18.20;99.90;;;;;;4846685;29;20498;-85
2023/10/03 08:39:04;;;;;;;12.00;4.80;;;18.00;99.90;;;;;;4846915;29;20057;-83
2023/10/03 08:42:13;;;;;;;14.50;4.82;;;17.90;99.90;;;;;;4845846;29;20049;-83
2023/10/03 08:44:51;;;;;;;12.50;4.57;;;17.70;99.90;;;;;;4847055;29;20042;-82
2023/10/03 08:47:31;;;;;;;15.93;5.10;;;17.60;99.90;;;;;;4841318;29;20046;-83
2023/10/03 08:50:11;;;;;;;14.05;4.93;;;17.50;99.90;;;;;;4840588;29;20053;-83
2023/10/03 08:52:46;;;;;;;13.05;4.40;;;17.50;99.90;;;;;;4843585;29;20059;-83
2023/10/03 08:55:19;;;;;;;11.07;4.45;;;17.40;99.90;;;;;;4843301;29;20045;-83
2023/10/03 08:57:47;;;;;;;13.48;3.80;;;17.50;99.90;;;;;;4844826;29;20046;-83
2023/10/03 09:00:14;;;;;;;11.57;3.92;;;17.50;99.90;;;;;;4841907;29;20529;-83
2023/10/03 09:02:49;;;;;;;11.27;3.60;;;17.50;99.90;;;;;;4842448;29;20049;-83
2023/10/03 09:05:19;;;;;;;12.93;3.50;;;17.70;99.90;;;;;;4838829;29;20053;-84
2023/10/03 09:07:49;;;;;;;11.75;3.47;;;17.50;99.90;;;;;;4846212;29;20053;-85
2023/10/03 09:10:22;;;;;;;11.70;3.25;;;17.40;99.90;;;;;;4844270;29;20060;-84
2023/10/03 09:13:04;;;;;;;12.57;3.47;;;17.40;99.90;;;;;;4842868;29;20060;-84
2023/10/03 09:15:37;;;;;;;11.40;3.40;;;17.40;99.90;;;;;;4827583;29;20491;-83
2023/10/03 09:18:10;;;;;;;10.35;3.00;;;17.40;99.90;;;;;;4827161;29;20406;-84
2023/10/03 09:20:37;;;;;;;10.10;2.70;;;17.30;99.90;;;;;;4828037;29;20067;-83
2023/10/03 09:23:07;;;;;;;12.40;2.90;;;17.40;99.90;;;;;;4827541;29;20058;-83
2023/10/03 09:25:41;;;;;;;10.40;2.50;;;17.40;99.90;;;;;;4838846;29;20409;-83
2023/10/03 09:28:08;;;;;;;10.60;2.67;;;17.40;99.90;;;;;;4846127;29;20132;-83
2023/10/03 09:30:40;;;;;;;8.73;2.50;;;17.40;99.90;;;;;;4855438;29;20064;-83
2023/10/03 09:33:10;;;;;;;9.80;2.50;;;17.40;99.90;;;;;;4864583;29;20114;-82
2023/10/03 09:35:39;;;;;;;7.97;2.08;;;17.40;99.90;;;;;;4856554;29;20076;-84
2023/10/03 09:38:08;;;;;;;8.27;2.05;;;17.30;99.90;;;;;;4829598;29;20053;-84
2023/10/03 09:40:56;;;;;;;7.65;1.90;;;17.70;99.90;;;;;;4846420;29;20050;-83
2023/10/03 09:43:27;;;;;;;8.60;1.88;;;17.30;99.90;;;;;;4845064;29;20505;-81
2023/10/03 09:45:56;;;;;;;8.93;2.00;;;17.30;99.90;;;;;;4845020;29;20061;-81
2023/10/03 09:48:25;;;;;;;6.45;1.70;;;17.30;99.90;;;;;;4862672;29;20438;-82
2023/10/03 09:51:05;;;;;;;8.60;1.90;;;18.00;99.90;;;;;;4863709;29;20049;-83
2023/10/03 09:53:31;;;;;;;7.00;1.90;;;17.50;99.90;;;;;;4860288;29;20069;-83
2023/10/03 09:55:59;;;;;;;8.23;2.20;;;17.50;99.90;;;;;;4863409;29;20128;-83
2023/10/03 09:58:31;;;;;;;8.43;1.70;;;17.50;99.90;;;;;;4862172;29;20059;-84
2023/10/03 10:00:58;;;;;;;6.30;1.70;;;17.30;99.90;;;;;;4861442;29;20055;-82
2023/10/03 10:03:33;;;;;;;4.53;1.20;;;17.00;99.90;;;;;;4861888;29;20129;-83
2023/10/03 10:06:19;;;;;;;5.68;1.20;;;16.60;99.90;;;;;;4859446;29;20136;-82
2023/10/03 10:09:00;;;;;;;5.28;1.20;;;16.20;99.90;;;;;;4860128;29;20056;-83
2023/10/03 10:11:27;;;;;;;5.40;1.35;;;16.10;99.90;;;;;;4862089;29;20128;-83
2023/10/03 10:14:09;;;;;;;5.80;1.65;;;16.10;99.90;;;;;;4861516;29;20498;-83
2023/10/03 10:16:35;;;;;;;5.72;1.63;;;16.10;99.90;;;;;;4860886;29;20060;-83
2023/10/03 10:19:01;;;;;;;10.63;1.80;;;16.00;99.90;;;;;;4862743;29;20486;-83
2023/10/03 10:21:37;;;;;;;7.40;1.65;;;16.00;99.90;;;;;;4861501;29;20996;-83
2023/10/03 10:24:25;;;;;;;6.68;1.80;;;15.90;99.90;;;;;;4862937;29;20100;-83
2023/10/03 10:26:52;;;;;;;7.20;1.50;;;15.90;99.90;;;;;;4862174;29;20064;-83
2023/10/03 10:29:24;;;;;;;6.65;1.40;;;16.10;99.90;;;;;;4860920;29;20053;-84
2023/10/03 10:31:58;;;;;;;4.47;1.08;;;15.80;99.90;;;;;;4862034;29;20402;-84
2023/10/03 10:34:27;;;;;;;7.65;1.35;;;15.70;99.90;;;;;;4861597;29;20049;-83
2023/10/03 10:37:09;;;;;;;6.03;1.20;;;15.70;99.90;;;;;;4860232;29;20045;-83
2023/10/03 10:39:54;;;;;;;4.82;1.40;;;15.70;99.90;;;;;;4860502;29;20048;-83
2023/10/03 10:42:26;;;;;;;5.78;1.33;;;15.80;99.90;;;;;;4860222;29;20057;-83
2023/10/03 10:45:09;;;;;;;3.05;1.10;;;15.90;99.90;;;;;;4859520;29;20106;-83
2023/10/03 10:47:43;;;;;;;5.10;1.40;;;15.90;99.90;;;;;;4846506;29;20088;-83
2023/10/03 10:50:09;;;;;;;5.50;1.40;;;15.90;99.90;;;;;;4862166;29;20511;-84
2023/10/03 10:53:07;;;;;;;3.33;1.10;;;15.90;99.90;;;;;;4861187;29;20045;-84
2023/10/03 10:55:33;;;;;;;6.78;1.30;;;15.90;99.90;;;;;;4851822;29;20045;-85
2023/10/03 10:58:08;;;;;;;5.95;1.30;;;16.00;99.90;;;;;;4869340;29;20044;-83
2023/10/03 11:00:34;;;;;;;5.53;1.27;;;16.00;99.90;;;;;;4862680;29;20057;-83
2023/10/03 11:03:07;;;;;;;3.38;1.10;;;16.40;99.90;;;;;;4861709;29;20045;-84
2023/10/03 11:05:47;;;;;;;6.22;1.40;;;16.10;99.90;;;;;;4861193;29;20053;-79
2023/10/03 11:08:13;;;;;;;4.45;1.20;;;16.20;99.90;;;;;;4862490;29;20055;-84
2023/10/03 11:10:51;;;;;;;3.65;1.20;;;16.20;99.90;;;;;;4861569;29;20486;-84
2023/10/03 11:13:17;;;;;;;6.00;1.42;;;16.20;99.90;;;;;;4862249;29;20051;-82
2023/10/03 11:15:47;;;;;;;6.43;1.60;;;16.40;99.90;;;;;;4859054;29;20037;-81
2023/10/03 11:18:14;;;;;;;6.28;1.30;;;16.40;99.90;;;;;;4857042;29;20422;-80
2023/10/03 11:20:40;;;;;;;5.97;1.40;;;16.40;99.90;;;;;;4874264;29;20045;-80
2023/10/03 11:23:15;;;;;;;4.07;1.20;;;16.40;99.90;;;;;;4860853;29;20052;-80
2023/10/03 11:26:01;;;;;;;5.65;1.23;;;16.40;99.90;;;;;;4855799;29;20159;-80
2023/10/03 11:28:28;;;;;;;7.47;1.30;;;16.60;99.90;;;;;;4847455;29;20121;-80
2023/10/03 11:31:04;;;;;;;5.30;1.38;;;16.60;99.90;;;;;;4851041;29;20045;-82
2023/10/03 11:33:46;;;;;;;5.82;1.60;;;16.60;99.90;;;;;;4872434;23;20051;-82
2023/10/03 11:36:13;;;;;;;10.95;1.95;;;16.90;99.90;;;;;;4894018;29;20079;-80
2023/10/03 11:38:46;;;;;;;6.72;1.60;;;17.00;99.90;;;;;;4895626;29;20048;-82
2023/10/03 11:41:12;;;;;;;8.82;1.50;;;16.90;99.90;;;;;;4894911;29;20095;-80
2023/10/03 11:43:47;;;;;;;5.95;1.50;;;17.10;99.90;;;;;;4894418;29;20434;-81
2023/10/03 11:46:13;;;;;;;6.57;1.50;;;17.00;99.90;;;;;;4894494;29;20040;-81
2023/10/03 11:48:38;;;;;;;8.75;2.28;;;17.00;99.90;;;;;;4895638;29;20045;-82
2023/10/03 11:51:04;;;;;;;6.00;1.50;;;16.80;99.90;;;;;;4897056;29;20132;-82
2023/10/03 11:53:31;;;;;;;5.93;1.60;;;17.00;99.90;;;;;;4898761;29;20044;-82
2023/10/03 11:55:57;;;;;;;6.40;1.60;;;16.60;99.90;;;;;;4884246;29;20055;-82
2023/10/03 11:58:22;;;;;;;6.68;1.60;;;16.50;99.90;;;;;;4931199;29;20396;-82
2023/10/03 12:00:49;;;;;;;9.27;1.80;;;16.30;99.90;;;;;;4902708;29;20043;-82
2023/10/03 12:03:15;;;;;;;7.03;1.92;;;16.20;99.90;;;;;;4901360;29;20717;-82
2023/10/03 12:05:45;;;;;;;7.00;1.60;;;16.20;99.90;;;;;;4900249;29;20127;-82
2023/10/03 12:08:11;;;;;;;7.22;1.70;;;16.20;99.90;;;;;;4901660;29;20174;-82
2023/10/03 12:10:40;;;;;;;8.23;1.70;;;16.00;99.90;;;;;;4902430;29;20505;-82
2023/10/03 12:13:06;;;;;;;7.43;1.55;;;15.90;99.90;;;;;;4897899;29;20055;-82
2023/10/03 12:15:32;;;;;;;8.60;1.75;;;15.70;99.90;;;;;;4902589;29;20043;-81
2023/10/03 12:17:59;;;;;;;6.80;1.50;;;15.00;99.90;;;;;;4902596;29;20043;-81
2023/10/03 12:20:25;;;;;;;10.20;2.10;;;15.30;99.90;;;;;;4901779;29;20082;-79
2023/10/03 12:22:52;;;;;;;8.90;1.80;;;15.30;99.90;;;;;;4901987;29;20445;-79
2023/10/03 12:25:21;;;;;;;9.13;2.10;;;14.40;99.90;;;;;;4901550;29;20091;-79
2023/10/03 12:27:47;;;;;;;6.45;1.65;;;14.20;99.90;;;;;;4918015;29;20047;-79
2023/10/03 12:30:15;;;;;;;6.63;1.73;;;14.10;99.90;;;;;;4901817;29;20494;-81
2023/10/03 12:32:47;;;;;;;7.53;1.70;;;14.00;99.90;;;;;;4902226;29;20058;-82
2023/10/03 12:35:13;;;;;;;7.32;1.80;;;14.00;99.90;;;;;;4901062;29;20052;-81
2023/10/03 12:37:42;;;;;;;9.35;2.00;;;13.90;99.90;;;;;;4901776;29;20051;-81
2023/10/03 12:40:16;;;;;;;7.03;2.20;;;14.70;99.90;;;;;;4901280;29;20095;-81
2023/10/03 12:42:50;;;;;;;10.07;2.20;;;14.00;99.90;;;;;;4900727;29;20112;-81
2023/10/03 12:45:22;;;;;;;8.35;2.05;;;14.00;99.90;;;;;;4918693;29;20052;-81
2023/10/03 12:47:52;;;;;;;8.43;2.28;;;13.90;99.90;;;;;;4898934;29;20040;-80
2023/10/03 12:50:26;;;;;;;9.73;2.28;;;13.80;99.90;;;;;;4901903;29;20148;-81
2023/10/03 12:53:01;;;;;;;7.00;1.92;;;13.70;99.90;;;;;;4899251;29;20063;-82
2023/10/03 12:55:29;;;;;;;9.48;2.28;;;13.60;99.90;;;;;;4928020;29;20117;-81
2023/10/03 12:57:56;;;;;;;9.65;2.45;;;13.60;99.90;;;;;;4886245;29;20056;-81